createdAt,value
2019-02-06T00:02:10.674Z,2.30
2019-02-06T00:04:39.974Z,2.30
2019-02-06T00:07:09.430Z,2.10
2019-02-06T00:09:38.763Z,2.20
2019-02-06T00:12:08.197Z,2.30
2019-02-06T00:14:37.566Z,2.30
2019-02-06T00:17:07.023Z,2.30
2019-02-06T00:19:36.455Z,2.30
2019-02-06T00:22:07.682Z,2.10
2019-02-06T00:24:36.979Z,2.10
2019-02-06T00:27:06.331Z,2.20
2019-02-06T00:29:35.666Z,2.20
2019-02-06T00:32:06.296Z,2.20
2019-02-06T00:34:35.633Z,2.10
2019-02-06T00:37:05.475Z,1.90
2019-02-06T00:39:34.776Z,2.10
2019-02-06T00:42:04.074Z,2.10
2019-02-06T00:44:33.856Z,2.10
2019-02-06T00:47:03.146Z,2.20
2019-02-06T00:49:32.503Z,2.10
2019-02-06T00:52:01.806Z,1.90
2019-02-06T00:54:31.094Z,1.80
2019-02-06T00:57:00.405Z,1.80
2019-02-06T00:59:30.313Z,1.70
2019-02-06T01:01:59.615Z,1.80
2019-02-06T01:04:28.898Z,1.80
2019-02-06T01:06:58.207Z,1.80
2019-02-06T01:09:27.507Z,2.00
2019-02-06T01:11:56.809Z,2.00
2019-02-06T01:14:26.085Z,1.80
2019-02-06T01:16:55.519Z,1.80
2019-02-06T01:19:24.825Z,1.80
2019-02-06T01:21:54.159Z,1.90
2019-02-06T01:24:23.439Z,1.90
2019-02-06T01:26:52.740Z,1.80
2019-02-06T01:29:22.022Z,1.60
2019-02-06T01:31:52.159Z,1.60
2019-02-06T01:34:21.467Z,1.90
2019-02-06T01:36:50.755Z,1.90
2019-02-06T01:39:20.050Z,1.80
2019-02-06T01:41:49.459Z,1.70
2019-02-06T01:44:19.717Z,1.60
2019-02-06T01:46:49.387Z,1.50
2019-02-06T01:49:18.667Z,1.60
2019-02-06T01:51:47.972Z,1.60
2019-02-06T01:54:17.250Z,1.70
2019-02-06T01:56:46.550Z,1.70
2019-02-06T01:59:15.874Z,1.70
2019-02-06T02:01:45.546Z,1.70
2019-02-06T02:04:14.847Z,1.60
2019-02-06T02:06:44.143Z,1.50
2019-02-06T02:09:15.246Z,1.50
2019-02-06T02:11:44.530Z,1.60
2019-02-06T02:14:13.827Z,1.60
2019-02-06T02:16:43.658Z,1.60
2019-02-06T02:19:12.963Z,1.60
2019-02-06T02:21:42.247Z,1.60
2019-02-06T02:24:11.565Z,1.40
2019-02-06T02:26:40.846Z,1.30
2019-02-06T02:29:10.168Z,1.10
2019-02-06T02:31:39.722Z,1.10
2019-02-06T02:34:09.023Z,1.20
2019-02-06T02:36:38.298Z,1.30
2019-02-06T02:39:09.106Z,1.30
2019-02-06T02:41:38.490Z,1.40
2019-02-06T02:44:08.926Z,1.40
2019-02-06T02:46:38.582Z,1.40
2019-02-06T02:49:07.867Z,1.40
2019-02-06T02:51:38.172Z,1.10
2019-02-06T02:54:07.664Z,1.00
2019-02-06T02:56:37.083Z,0.90
2019-02-06T02:59:06.492Z,1.10
2019-02-06T03:01:38.901Z,1.20
2019-02-06T03:04:09.928Z,1.20
2019-02-06T03:06:41.465Z,1.30
2019-02-06T03:09:11.797Z,1.10
2019-02-06T03:11:41.069Z,1.10
2019-02-06T03:14:10.744Z,1.10
2019-02-06T03:16:40.206Z,1.20
2019-02-06T03:19:09.515Z,1.30
2019-02-06T03:21:38.830Z,1.30
2019-02-06T03:24:08.174Z,1.10
2019-02-06T03:26:37.453Z,1.20
2019-02-06T03:29:06.738Z,1.20
2019-02-06T03:31:36.029Z,1.30
2019-02-06T03:34:05.317Z,1.40
2019-02-06T03:36:40.607Z,1.20
2019-02-06T03:39:07.954Z,1.00
2019-02-06T03:41:37.235Z,1.00
2019-02-06T03:44:06.875Z,1.10
2019-02-06T03:46:36.176Z,1.10
2019-02-06T03:49:05.480Z,1.20
2019-02-06T03:51:34.781Z,1.20
2019-02-06T03:54:04.800Z,1.00
2019-02-06T03:56:34.099Z,0.90
2019-02-06T03:59:03.386Z,1.00
2019-02-06T04:01:32.730Z,1.00
2019-02-06T04:04:02.018Z,0.90
2019-02-06T04:06:31.338Z,1.00
2019-02-06T04:09:00.628Z,1.10
2019-02-06T04:11:30.094Z,1.20
2019-02-06T04:13:59.379Z,1.10
2019-02-06T04:16:28.678Z,1.10
2019-02-06T04:18:57.946Z,1.10
2019-02-06T04:21:27.247Z,1.00
2019-02-06T04:23:56.529Z,1.00
2019-02-06T04:26:25.863Z,1.00
2019-02-06T04:28:55.143Z,1.10
2019-02-06T04:31:24.438Z,1.10
2019-02-06T04:33:53.815Z,1.10
2019-02-06T04:36:23.116Z,1.10
2019-02-06T04:38:52.400Z,0.80
2019-02-06T04:41:21.698Z,0.80
2019-02-06T04:43:51.018Z,0.80
2019-02-06T04:46:20.374Z,0.80
2019-02-06T04:48:49.655Z,0.80
2019-02-06T04:51:18.951Z,0.90
2019-02-06T04:53:48.235Z,0.90
2019-02-06T04:56:17.531Z,0.70
2019-02-06T04:58:46.812Z,0.60
2019-02-06T05:01:16.796Z,0.50
2019-02-06T05:03:46.239Z,0.40
2019-02-06T05:06:15.555Z,0.50
2019-02-06T05:08:44.820Z,0.60
2019-02-06T05:11:14.174Z,0.60
2019-02-06T05:13:43.554Z,0.50
2019-02-06T05:16:13.267Z,0.50
2019-02-06T05:18:42.739Z,0.50
2019-02-06T05:21:12.146Z,0.70
2019-02-06T05:23:41.441Z,0.60
2019-02-06T05:26:11.800Z,0.60
2019-02-06T05:28:41.099Z,0.60
2019-02-06T05:31:10.782Z,0.40
2019-02-06T05:33:40.102Z,0.40
2019-02-06T05:36:09.420Z,0.40
2019-02-06T05:38:38.713Z,0.40
2019-02-06T05:43:57.305Z,0.30
2019-02-06T05:46:26.618Z,0.60
2019-02-06T05:48:55.897Z,0.60
2019-02-06T05:51:25.250Z,0.60
2019-02-06T05:53:54.526Z,0.50
2019-02-06T05:56:36.249Z,0.60
2019-02-06T05:59:05.545Z,0.60
2019-02-06T06:01:34.859Z,0.50
2019-02-06T06:04:04.210Z,0.50
2019-02-06T06:06:33.509Z,0.60
2019-02-06T06:09:04.586Z,0.50
2019-02-06T06:11:34.376Z,0.40
2019-02-06T06:14:03.903Z,0.40
2019-02-06T06:16:33.369Z,0.50
2019-02-06T06:19:02.777Z,0.50
2019-02-06T06:21:32.058Z,0.60
2019-02-06T06:24:01.368Z,0.70
2019-02-06T06:26:30.743Z,0.70
2019-02-06T06:29:00.385Z,0.50
2019-02-06T06:31:29.765Z,0.60
2019-02-06T06:33:59.154Z,0.50
2019-02-06T06:36:28.452Z,0.30
2019-02-06T06:38:57.756Z,0.50
2019-02-06T06:41:27.063Z,0.50
2019-02-06T06:43:56.759Z,0.50
2019-02-06T06:46:26.049Z,0.30
2019-02-06T06:48:55.348Z,0.30
2019-02-06T06:51:24.648Z,0.60
2019-02-06T06:53:53.948Z,0.50
2019-02-06T06:56:23.253Z,0.50
2019-02-06T06:58:52.817Z,0.50
2019-02-06T07:01:22.183Z,0.40
2019-02-06T07:03:51.486Z,0.60
2019-02-06T07:06:20.775Z,0.70
2019-02-06T07:09:09.431Z,0.80
2019-02-06T07:11:38.777Z,0.80
2019-02-06T07:14:08.086Z,0.70
2019-02-06T07:16:37.379Z,0.60
2019-02-06T07:19:06.671Z,0.60
2019-02-06T07:21:36.058Z,0.70
2019-02-06T07:24:05.354Z,0.70
2019-02-06T07:26:34.751Z,0.70
2019-02-06T07:29:04.150Z,0.80
2019-02-06T07:31:33.447Z,0.70
2019-02-06T07:34:02.783Z,0.90
2019-02-06T07:36:32.073Z,0.70
2019-02-06T07:41:48.221Z,0.80
2019-02-06T07:44:17.523Z,0.80
2019-02-06T07:46:46.801Z,0.80
2019-02-06T07:49:16.097Z,1.00
2019-02-06T07:51:45.883Z,1.20
2019-02-06T07:54:15.182Z,1.10
2019-02-06T07:56:44.464Z,1.00
2019-02-06T07:59:13.797Z,1.20
2019-02-06T08:01:43.139Z,1.40
2019-02-06T08:04:12.431Z,1.40
2019-02-06T08:06:41.723Z,1.30
2019-02-06T08:09:11.083Z,1.30
2019-02-06T08:11:40.378Z,1.30
2019-02-06T08:14:09.679Z,1.50
2019-02-06T08:16:38.971Z,1.50
2019-02-06T08:19:08.426Z,1.50
2019-02-06T08:21:37.838Z,1.60
2019-02-06T08:24:07.209Z,1.70
2019-02-06T08:26:36.500Z,1.80
2019-02-06T08:29:06.104Z,1.90
2019-02-06T08:31:35.414Z,2.00
2019-02-06T08:34:04.775Z,2.20
2019-02-06T08:36:34.066Z,2.30
2019-02-06T08:39:05.119Z,2.40
2019-02-06T08:41:34.403Z,2.40
2019-02-06T08:44:04.064Z,2.60
2019-02-06T08:46:33.364Z,2.80
2019-02-06T08:49:02.768Z,2.80
2019-02-06T08:51:32.046Z,2.90
2019-02-06T08:54:01.331Z,3.00
2019-02-06T08:56:30.766Z,3.10
2019-02-06T08:59:00.165Z,3.10
2019-02-06T09:01:29.460Z,3.00
2019-02-06T09:03:58.738Z,3.10
2019-02-06T09:06:28.046Z,3.30
2019-02-06T09:08:59.811Z,3.50
2019-02-06T09:11:28.634Z,3.40
2019-02-06T09:13:57.925Z,3.50
2019-02-06T09:16:27.224Z,3.40
2019-02-06T09:18:56.513Z,3.60
2019-02-06T09:21:25.801Z,3.90
2019-02-06T09:23:55.528Z,4.00
2019-02-06T09:26:24.835Z,4.00
2019-02-06T09:28:54.238Z,4.10
2019-02-06T09:31:23.651Z,3.90
2019-02-06T09:33:52.938Z,4.00
2019-02-06T09:36:22.234Z,4.30
2019-02-06T09:38:51.973Z,4.20
2019-02-06T09:41:21.281Z,4.50
2019-02-06T09:43:50.568Z,4.60
2019-02-06T09:46:19.870Z,4.50
2019-02-06T09:48:49.154Z,4.70
2019-02-06T09:51:19.339Z,4.50
2019-02-06T09:53:49.085Z,4.70
2019-02-06T09:56:18.382Z,5.00
2019-02-06T09:58:47.702Z,5.10
2019-02-06T10:01:16.992Z,5.10
2019-02-06T10:03:46.995Z,5.10
2019-02-06T10:06:16.520Z,5.10
2019-02-06T10:08:45.788Z,5.00
2019-02-06T10:11:15.091Z,5.30
2019-02-06T10:13:44.398Z,5.70
2019-02-06T10:16:13.871Z,6.30
2019-02-06T10:18:43.150Z,6.70
2019-02-06T10:21:12.501Z,8.00
2019-02-06T10:23:42.946Z,9.90
2019-02-06T10:26:12.351Z,10.60
2019-02-06T10:28:41.647Z,12.20
2019-02-06T10:31:11.011Z,14.10
2019-02-06T10:33:40.303Z,15.30
2019-02-06T10:36:09.583Z,15.30
2019-02-06T10:38:38.958Z,15.60
2019-02-06T10:41:08.242Z,15.90
2019-02-06T10:43:37.542Z,15.40
2019-02-06T10:46:06.841Z,15.00
2019-02-06T10:48:36.146Z,14.80
2019-02-06T10:51:05.509Z,14.60
2019-02-06T10:53:34.814Z,14.20
2019-02-06T10:56:04.270Z,14.50
2019-02-06T10:58:33.570Z,14.80
2019-02-06T11:01:03.390Z,14.00
2019-02-06T11:03:32.988Z,14.20
2019-02-06T11:06:02.386Z,14.50
2019-02-06T11:08:31.688Z,15.60
2019-02-06T11:11:01.367Z,17.00
2019-02-06T11:13:30.683Z,18.10
2019-02-06T11:16:00.115Z,18.70
2019-02-06T11:18:29.407Z,19.70
2019-02-06T11:20:58.690Z,20.40
2019-02-06T11:23:28.038Z,21.00
2019-02-06T11:25:57.705Z,21.50
2019-02-06T11:28:27.174Z,21.80
2019-02-06T11:30:57.289Z,22.40
2019-02-06T11:33:26.751Z,22.60
2019-02-06T11:35:56.038Z,21.50
2019-02-06T11:38:27.942Z,22.20
2019-02-06T11:40:56.397Z,23.00
2019-02-06T11:43:25.690Z,23.30
2019-02-06T11:45:54.979Z,23.80
2019-02-06T11:48:24.367Z,24.70
2019-02-06T11:50:53.664Z,25.60
2019-02-06T11:53:25.915Z,26.40
2019-02-06T11:55:54.194Z,27.10
2019-02-06T11:58:23.511Z,27.70
2019-02-06T12:01:06.480Z,28.40
2019-02-06T12:03:35.806Z,28.00
2019-02-06T12:06:05.280Z,28.10
2019-02-06T12:08:34.642Z,27.90
2019-02-06T12:11:04.328Z,28.00
2019-02-06T12:13:33.622Z,28.20
2019-02-06T12:16:02.992Z,28.30
2019-02-06T12:18:32.312Z,28.30
2019-02-06T12:21:01.590Z,28.90
2019-02-06T12:23:32.588Z,29.20
2019-02-06T12:26:02.054Z,28.40
2019-02-06T12:28:31.375Z,28.70
2019-02-06T12:31:01.035Z,29.10
2019-02-06T12:33:30.406Z,28.90
2019-02-06T12:35:59.766Z,28.20
2019-02-06T12:38:29.524Z,28.60
2019-02-06T12:40:58.827Z,29.10
2019-02-06T12:43:28.115Z,29.80
2019-02-06T12:45:57.410Z,30.50
2019-02-06T12:48:26.746Z,28.60
2019-02-06T12:50:56.084Z,28.60
2019-02-06T12:53:25.372Z,29.10
2019-02-06T12:55:55.215Z,29.20
2019-02-06T12:58:26.250Z,28.80
2019-02-06T13:00:55.563Z,29.00
2019-02-06T13:03:24.843Z,29.40
2019-02-06T13:05:54.142Z,29.90
2019-02-06T13:08:23.439Z,30.10
2019-02-06T13:10:52.738Z,29.90
2019-02-06T13:13:22.022Z,29.70
2019-02-06T13:15:51.341Z,29.90
2019-02-06T13:18:20.615Z,29.70
2019-02-06T13:20:51.389Z,29.30
2019-02-06T13:23:20.977Z,26.50
2019-02-06T13:25:50.368Z,23.00
2019-02-06T13:28:22.519Z,21.20
2019-02-06T13:30:51.819Z,19.90
2019-02-06T13:33:21.107Z,18.80
2019-02-06T13:35:50.432Z,17.90
2019-02-06T13:38:19.719Z,17.40
2019-02-06T13:40:49.601Z,16.80
2019-02-06T13:43:19.874Z,15.60
2019-02-06T13:45:49.563Z,14.90
2019-02-06T13:48:18.875Z,14.30
2019-02-06T13:50:48.254Z,13.90
2019-02-06T13:53:17.567Z,13.50
2019-02-06T13:55:47.319Z,13.20
2019-02-06T13:58:20.402Z,13.10
2019-02-06T14:00:47.615Z,12.90
2019-02-06T14:03:16.925Z,12.80
2019-02-06T14:05:47.073Z,12.70
2019-02-06T14:08:16.500Z,12.60
2019-02-06T14:10:58.278Z,12.50
2019-02-06T14:13:17.931Z,12.40
2019-02-06T14:15:48.602Z,12.30
2019-02-06T14:18:18.126Z,12.10
2019-02-06T14:20:49.295Z,11.90
2019-02-06T14:23:27.814Z,11.80
2019-02-06T14:26:30.614Z,11.80
2019-02-06T14:29:34.819Z,11.80
2019-02-06T14:32:09.939Z,11.60
2019-02-06T14:34:51.398Z,11.50
2019-02-06T14:37:32.828Z,11.40
2019-02-06T14:40:21.624Z,11.30
2019-02-06T14:43:11.534Z,11.20
2019-02-06T14:45:59.015Z,11.20
2019-02-06T14:48:34.073Z,11.00
2019-02-06T14:51:09.383Z,11.00
2019-02-06T14:53:47.564Z,10.70
2019-02-06T14:56:36.594Z,10.70
2019-02-06T14:59:21.044Z,10.70
2019-02-06T15:02:11.390Z,10.40
2019-02-06T15:05:01.814Z,10.40
2019-02-06T15:07:58.255Z,10.30
2019-02-06T15:10:48.643Z,10.30
2019-02-06T15:13:37.412Z,10.50
2019-02-06T15:16:31.052Z,10.50
2019-02-06T15:19:05.899Z,10.50
2019-02-06T15:21:58.063Z,10.30
2019-02-06T15:24:59.583Z,10.20
2019-02-06T15:27:53.626Z,10.20
2019-02-06T15:30:28.987Z,10.10
2019-02-06T15:33:16.237Z,10.00
2019-02-06T15:35:51.137Z,10.00
2019-02-06T15:38:41.134Z,9.80
2019-02-06T15:41:13.626Z,9.80
2019-02-06T15:43:45.990Z,9.80
2019-02-06T15:46:27.405Z,9.70
2019-02-06T15:49:19.188Z,9.60
2019-02-06T15:52:06.447Z,9.40
2019-02-06T15:54:48.543Z,9.30
2019-02-06T15:57:36.200Z,9.10
2019-02-06T16:00:18.283Z,8.90
2019-02-06T16:03:14.790Z,8.80
2019-02-06T16:06:13.008Z,8.40
2019-02-06T16:08:51.183Z,8.30
2019-02-06T16:11:42.643Z,8.10
2019-02-06T16:14:27.164Z,8.10
2019-02-06T16:16:59.642Z,8.00
2019-02-06T16:19:37.841Z,7.90
2019-02-06T16:22:12.863Z,7.80
2019-02-06T16:24:54.054Z,7.80
2019-02-06T16:27:26.422Z,7.70
2019-02-06T16:30:19.926Z,7.60
2019-02-06T16:33:14.955Z,7.40
2019-02-06T16:35:50.013Z,7.30
2019-02-06T16:38:34.442Z,7.00
2019-02-06T16:41:12.830Z,6.90
2019-02-06T16:44:15.877Z,6.90
2019-02-06T16:46:51.128Z,6.70
2019-02-06T16:49:53.650Z,6.60
2019-02-06T16:52:29.058Z,6.40
2019-02-06T16:55:04.089Z,6.30
2019-02-06T16:57:45.621Z,6.20
2019-02-06T17:00:23.787Z,6.10
2019-02-06T17:03:04.740Z,6.10
2019-02-06T17:05:56.074Z,6.00
2019-02-06T17:08:45.191Z,5.90
2019-02-06T17:11:36.479Z,5.80
2019-02-06T17:14:17.647Z,5.80
2019-02-06T17:16:50.032Z,5.80
2019-02-06T17:19:22.426Z,5.70
2019-02-06T17:22:16.800Z,5.60
2019-02-06T17:24:49.216Z,5.60
2019-02-06T17:27:28.839Z,5.40
2019-02-06T17:30:24.902Z,5.30
2019-02-06T17:33:02.805Z,5.30
2019-02-06T17:35:40.863Z,5.20
2019-02-06T17:38:36.048Z,5.10
2019-02-06T17:41:20.090Z,5.10
2019-02-06T17:43:58.085Z,5.10
2019-02-06T17:46:36.302Z,5.00
2019-02-06T17:49:30.052Z,5.10
2019-02-06T17:52:11.950Z,5.00
2019-02-06T17:55:04.148Z,5.10
2019-02-06T17:57:33.450Z,5.00
2019-02-06T18:00:04.734Z,4.90
2019-02-06T18:02:35.119Z,4.80
2019-02-06T18:05:06.714Z,4.80
2019-02-06T18:07:36.099Z,4.70
2019-02-06T18:10:14.390Z,4.60
2019-02-06T18:12:43.791Z,4.40
2019-02-06T18:15:13.741Z,4.40
2019-02-06T18:17:45.162Z,4.50
2019-02-06T18:20:16.600Z,4.50
2019-02-06T18:22:46.052Z,4.50
2019-02-06T18:25:16.346Z,4.60
2019-02-06T18:27:47.088Z,4.60
2019-02-06T18:30:21.541Z,4.50
2019-02-06T18:32:50.965Z,4.50
2019-02-06T18:35:20.277Z,4.60
2019-02-06T18:37:51.416Z,4.80
2019-02-06T18:40:25.388Z,4.80
2019-02-06T18:42:55.327Z,4.70
2019-02-06T18:45:27.766Z,4.80
2019-02-06T18:48:08.476Z,4.80
2019-02-06T18:50:39.844Z,4.60
2019-02-06T18:53:09.586Z,4.60
2019-02-06T18:55:39.214Z,4.50
2019-02-06T18:58:09.131Z,4.30
2019-02-06T19:00:43.608Z,4.40
2019-02-06T19:03:16.045Z,4.50
2019-02-06T19:05:45.414Z,4.20
2019-02-06T19:08:15.052Z,4.30
2019-02-06T19:10:44.586Z,4.20
2019-02-06T19:13:15.237Z,4.30
2019-02-06T19:15:44.554Z,4.30
2019-02-06T19:18:13.920Z,4.20
2019-02-06T19:20:43.232Z,4.30
2019-02-06T19:23:12.526Z,4.50
2019-02-06T19:25:42.818Z,4.40
2019-02-06T19:28:12.410Z,4.30
2019-02-06T19:30:44.104Z,4.10
2019-02-06T19:33:13.431Z,4.00
2019-02-06T19:35:42.714Z,4.10
2019-02-06T19:38:12.109Z,4.20
2019-02-06T19:40:41.606Z,4.00
2019-02-06T19:43:10.903Z,4.00
2019-02-06T19:45:40.626Z,4.00
2019-02-06T19:48:16.142Z,4.10
2019-02-06T19:50:43.283Z,3.90
2019-02-06T19:53:12.725Z,3.90
2019-02-06T19:55:42.222Z,3.80
2019-02-06T19:58:11.777Z,3.70
2019-02-06T20:00:41.135Z,3.70
2019-02-06T20:03:10.479Z,3.70
2019-02-06T20:05:39.927Z,3.70
2019-02-06T20:08:10.048Z,3.80
2019-02-06T20:10:50.531Z,4.00
2019-02-06T20:13:20.934Z,3.90
2019-02-06T20:15:50.324Z,3.90
2019-02-06T20:18:19.615Z,3.90
2019-02-06T20:20:48.917Z,3.70
2019-02-06T20:23:18.338Z,3.50
2019-02-06T20:25:47.642Z,3.60
2019-02-06T20:28:16.934Z,3.50
2019-02-06T20:30:46.378Z,3.60
2019-02-06T20:33:16.246Z,3.40
2019-02-06T20:35:45.547Z,3.40
2019-02-06T20:38:14.834Z,3.40
2019-02-06T20:40:44.729Z,3.60
2019-02-06T20:43:21.777Z,3.70
2019-02-06T20:45:45.226Z,3.60
2019-02-06T20:48:14.522Z,3.40
2019-02-06T20:50:44.005Z,3.40
2019-02-06T20:53:13.283Z,3.30
2019-02-06T20:55:42.763Z,3.30
2019-02-06T20:58:12.144Z,3.40
2019-02-06T21:00:42.378Z,3.40
2019-02-06T21:03:11.814Z,3.30
2019-02-06T21:05:41.655Z,3.20
2019-02-06T21:08:10.937Z,3.20
2019-02-06T21:10:40.233Z,3.20
2019-02-06T21:13:09.586Z,3.10
2019-02-06T21:15:38.879Z,3.10
2019-02-06T21:18:08.166Z,3.00
2019-02-06T21:20:37.474Z,2.90
2019-02-06T21:23:06.777Z,2.90
2019-02-06T21:25:37.090Z,3.00
2019-02-06T21:28:06.396Z,3.10
2019-02-06T21:30:40.198Z,3.10
2019-02-06T21:33:09.566Z,3.10
2019-02-06T21:35:39.220Z,2.90
2019-02-06T21:38:08.514Z,2.90
2019-02-06T21:40:38.265Z,2.90
2019-02-06T21:43:08.024Z,3.00
2019-02-06T21:45:37.337Z,2.90
2019-02-06T21:48:07.130Z,2.90
2019-02-06T21:50:36.984Z,2.80
2019-02-06T21:53:06.335Z,2.70
2019-02-06T21:55:35.618Z,2.80
2019-02-06T21:58:05.364Z,2.90
2019-02-06T22:00:37.720Z,2.80
2019-02-06T22:03:07.176Z,2.60
2019-02-06T22:05:36.818Z,2.50
2019-02-06T22:08:06.354Z,2.50
2019-02-06T22:10:35.640Z,2.60
2019-02-06T22:13:05.677Z,2.70
2019-02-06T22:15:34.990Z,2.90
2019-02-06T22:18:04.362Z,3.00
2019-02-06T22:20:33.650Z,2.90
2019-02-06T22:23:02.950Z,2.90
2019-02-06T22:25:32.236Z,2.90
2019-02-06T22:28:01.535Z,2.80
2019-02-06T22:30:31.054Z,2.60
2019-02-06T22:33:00.409Z,2.60
2019-02-06T22:35:29.813Z,2.50
2019-02-06T22:37:59.093Z,2.60
2019-02-06T22:40:28.498Z,2.60
2019-02-06T22:42:57.782Z,2.50
2019-02-06T22:45:28.698Z,2.60
2019-02-06T22:47:57.983Z,2.60
2019-02-06T22:50:29.183Z,2.70
2019-02-06T22:52:59.434Z,2.60
2019-02-06T22:55:28.734Z,2.40
2019-02-06T22:57:58.107Z,2.60
2019-02-06T23:00:53.046Z,2.60
2019-02-06T23:03:25.640Z,2.50
2019-02-06T23:05:56.022Z,2.40
2019-02-06T23:08:25.313Z,2.20
2019-02-06T23:10:54.650Z,2.20
2019-02-06T23:13:23.939Z,2.30
2019-02-06T23:15:53.318Z,2.50
2019-02-06T23:18:23.953Z,2.30
2019-02-06T23:20:53.254Z,2.30
2019-02-06T23:23:22.552Z,2.20
2019-02-06T23:25:52.271Z,2.20
2019-02-06T23:28:21.566Z,2.20
2019-02-06T23:30:50.894Z,2.20
2019-02-06T23:33:20.303Z,2.10
2019-02-06T23:35:49.591Z,2.00
2019-02-06T23:38:18.883Z,2.20
2019-02-06T23:40:48.721Z,2.20
2019-02-06T23:43:18.081Z,2.00
2019-02-06T23:45:47.476Z,1.90
2019-02-06T23:48:16.787Z,2.00
2019-02-06T23:50:46.158Z,2.20
2019-02-06T23:53:15.462Z,2.30
2019-02-06T23:55:45.134Z,2.20
2019-02-06T23:58:14.419Z,2.10
